Time;durP1;ratioP1;P1;durP2;ratioP2;P2;SDS_P1;SDS_P2;PMS_P1;PMS_P2;Temp;Humidity;BMP_temperature;BMP_pressure;BME280_temperature;BME280_humidity;BME280_pressure;Samples;Min_cycle;Max_cycle;Signal;HPM_P1;HPM_P2
2023/09/21 00:02:22;;;;;;;4.43;3.70;;;16.00;99.90;;;;;;5189618;28;20108;-76
2023/09/21 00:04:53;;;;;;;4.40;4.00;;;16.10;99.90;;;;;;5207303;28;20060;-76
2023/09/21 00:07:24;;;;;;;3.88;3.58;;;16.00;99.90;;;;;;5206950;28;20103;-77
2023/09/21 00:09:55;;;;;;;5.03;3.30;;;16.00;99.90;;;;;;5207142;28;20022;-76
2023/09/21 00:12:27;;;;;;;4.28;3.30;;;15.50;99.90;;;;;;5189616;28;20029;-76
2023/09/21 00:14:59;;;;;;;3.78;3.42;;;15.80;99.90;;;;;;5207085;28;20057;-76
2023/09/21 00:17:32;;;;;;;4.45;3.90;;;15.90;99.90;;;;;;5206923;28;20041;-77
2023/09/21 00:20:24;;;;;;;3.38;3.08;;;15.80;99.90;;;;;;5207103;28;20051;-77
2023/09/21 00:22:56;;;;;;;3.72;3.40;;;15.70;99.90;;;;;;5189706;28;20401;-76
2023/09/21 00:25:28;;;;;;;4.07;3.67;;;15.70;99.90;;;;;;5189333;28;20025;-76
2023/09/21 00:27:58;;;;;;;4.35;4.05;;;15.70;99.90;;;;;;5207172;28;20028;-76
2023/09/21 00:30:29;;;;;;;3.83;3.40;;;15.80;99.90;;;;;;5189194;28;20033;-76
2023/09/21 00:33:01;;;;;;;5.70;3.83;;;15.80;99.90;;;;;;5206967;28;20022;-76
2023/09/21 00:35:33;;;;;;;4.15;3.45;;;15.80;99.90;;;;;;5680299;22;20023;-76
2023/09/21 00:38:07;;;;;;;4.45;4.00;;;15.80;99.90;;;;;;5224746;28;20052;-76
2023/09/21 00:40:38;;;;;;;3.95;3.63;;;15.80;99.90;;;;;;5225721;28;20171;-76
2023/09/21 00:43:18;;;;;;;5.13;3.10;;;15.80;99.90;;;;;;5227057;28;20516;-77
2023/09/21 00:45:54;;;;;;;4.18;3.78;;;15.90;99.90;;;;;;5227141;28;20099;-77
2023/09/21 00:48:28;;;;;;;4.60;3.70;;;15.80;99.90;;;;;;5227124;28;20025;-76
2023/09/21 00:51:05;;;;;;;6.93;3.70;;;15.70;99.90;;;;;;5227063;28;20021;-76
2023/09/21 00:53:39;;;;;;;4.68;4.10;;;15.50;99.90;;;;;;5227122;28;20020;-76
2023/09/21 00:56:13;;;;;;;4.85;4.45;;;15.70;99.90;;;;;;5225773;28;20029;-77
2023/09/21 00:58:48;;;;;;;5.38;4.03;;;15.40;99.90;;;;;;5226663;28;20116;-77
2023/09/21 01:01:28;;;;;;;4.20;3.80;;;15.50;99.90;;;;;;5226391;28;20203;-78
2023/09/21 01:04:06;;;;;;;5.82;4.00;;;15.60;99.90;;;;;;5225280;28;20041;-76
2023/09/21 01:06:39;;;;;;;4.28;3.88;;;15.60;99.90;;;;;;5214771;28;20038;-77
2023/09/21 01:09:10;;;;;;;4.28;3.88;;;15.60;99.90;;;;;;5206255;28;20029;-76
2023/09/21 01:11:40;;;;;;;4.35;3.95;;;15.80;99.90;;;;;;5206099;28;20025;-76
2023/09/21 01:14:11;;;;;;;4.88;4.22;;;15.80;99.90;;;;;;5206236;28;20064;-76
2023/09/21 01:16:42;;;;;;;4.22;3.83;;;15.80;99.90;;;;;;5206128;28;20045;-76
2023/09/21 01:19:14;;;;;;;5.93;4.32;;;15.50;99.90;;;;;;5205817;28;20017;-77
2023/09/21 01:21:47;;;;;;;5.30;4.80;;;15.60;99.90;;;;;;5206259;28;20461;-76
2023/09/21 01:24:22;;;;;;;4.90;4.43;;;15.70;99.90;;;;;;5206064;28;20079;-76
2023/09/21 01:26:53;;;;;;;6.22;4.90;;;15.60;99.90;;;;;;5205879;28;20040;-76
2023/09/21 01:29:24;;;;;;;5.55;4.95;;;15.60;99.90;;;;;;5205505;28;20025;-76
2023/09/21 01:31:56;;;;;;;6.32;3.92;;;15.50;99.90;;;;;;5205499;28;20094;-75
2023/09/21 01:34:27;;;;;;;4.90;4.40;;;15.40;99.90;;;;;;5205281;28;20111;-76
2023/09/21 01:36:57;;;;;;;5.57;4.55;;;15.40;99.90;;;;;;5205441;28;20053;-75
2023/09/21 01:39:29;;;;;;;4.32;3.92;;;15.50;99.90;;;;;;5205273;28;20033;-76
2023/09/21 01:42:00;;;;;;;4.88;4.47;;;15.20;99.90;;;;;;5205299;28;20052;-76
2023/09/21 01:44:31;;;;;;;5.20;4.10;;;15.50;99.90;;;;;;5205222;28;20013;-76
2023/09/21 01:47:02;;;;;;;5.80;4.40;;;15.50;99.90;;;;;;5187436;28;20036;-76
2023/09/21 01:49:32;;;;;;;4.30;3.90;;;15.30;99.90;;;;;;5187755;28;20477;-76
2023/09/21 01:52:03;;;;;;;5.85;4.57;;;15.20;99.90;;;;;;5205746;28;20040;-76
2023/09/21 01:54:34;;;;;;;4.65;4.25;;;15.30;99.90;;;;;;5205353;28;20036;-77
2023/09/21 01:57:08;;;;;;;5.93;5.00;;;15.50;99.90;;;;;;5205568;28;20044;-76
2023/09/21 01:59:39;;;;;;;4.85;4.38;;;15.60;99.90;;;;;;5205283;28;20033;-76
2023/09/21 02:02:10;;;;;;;6.65;4.93;;;15.40;99.90;;;;;;5205667;28;20119;-77
2023/09/21 02:04:41;;;;;;;6.70;5.00;;;15.40;99.90;;;;;;5205425;28;20215;-77
2023/09/21 02:07:14;;;;;;;7.15;5.22;;;15.50;99.90;;;;;;5205436;28;20032;-76
2023/09/21 02:09:45;;;;;;;5.43;4.90;;;15.40;99.90;;;;;;5188141;28;20033;-76
2023/09/21 02:12:16;;;;;;;6.60;5.55;;;15.40;99.90;;;;;;5208035;28;20037;-76
2023/09/21 02:14:47;;;;;;;7.32;5.03;;;15.50;99.90;;;;;;5191928;28;20484;-77
2023/09/21 02:17:19;;;;;;;5.75;4.75;;;15.40;99.90;;;;;;5191523;28;20033;-76
2023/09/21 02:19:50;;;;;;;5.53;5.03;;;15.40;99.90;;;;;;5209141;28;20029;-76
2023/09/21 02:22:21;;;;;;;6.18;5.53;;;15.20;99.90;;;;;;5209261;28;20029;-76
2023/09/21 02:24:55;;;;;;;5.93;5.43;;;15.10;99.90;;;;;;5191297;28;20032;-76
2023/09/21 02:27:26;;;;;;;6.97;5.50;;;15.20;99.90;;;;;;5191307;28;20041;-76
2023/09/21 02:29:57;;;;;;;7.32;5.32;;;15.20;99.90;;;;;;5208657;28;20021;-76
2023/09/21 02:32:28;;;;;;;6.57;5.25;;;15.30;99.90;;;;;;5208998;28;20036;-76
2023/09/21 02:35:00;;;;;;;5.95;5.32;;;15.20;99.90;;;;;;5191126;28;20558;-76
2023/09/21 02:37:31;;;;;;;7.05;4.72;;;15.30;99.90;;;;;;5208663;28;20057;-76
2023/09/21 02:40:03;;;;;;;6.25;5.53;;;15.20;99.90;;;;;;5209086;28;20041;-76
2023/09/21 02:42:34;;;;;;;7.15;5.45;;;15.10;99.90;;;;;;5191253;28;20475;-76
2023/09/21 02:45:09;;;;;;;5.43;4.93;;;15.40;99.90;;;;;;5191370;28;20117;-76
2023/09/21 02:47:43;;;;;;;6.18;5.32;;;15.10;99.90;;;;;;5208991;28;20040;-76
2023/09/21 02:50:15;;;;;;;7.00;5.68;;;14.90;99.90;;;;;;5208921;28;20543;-76
2023/09/21 02:52:50;;;;;;;6.25;5.68;;;15.10;99.90;;;;;;5208781;28;20040;-76
2023/09/21 02:55:22;;;;;;;5.50;5.00;;;15.00;99.90;;;;;;5191039;28;20381;-76
2023/09/21 02:58:15;;;;;;;6.82;5.50;;;15.20;99.90;;;;;;5208515;28;20144;-76
2023/09/21 03:00:46;;;;;;;7.07;5.10;;;15.30;99.90;;;;;;5208865;28;20480;-77
2023/09/21 03:03:21;;;;;;;8.10;6.72;;;15.30;99.90;;;;;;5208558;28;20025;-76
2023/09/21 03:05:52;;;;;;;6.88;5.82;;;15.30;99.90;;;;;;5208366;28;20492;-76
2023/09/21 03:08:23;;;;;;;6.53;5.28;;;15.00;99.90;;;;;;5208522;28;20028;-77
2023/09/21 03:10:54;;;;;;;7.28;5.60;;;15.10;99.90;;;;;;5208555;28;20022;-76
2023/09/21 03:13:25;;;;;;;9.32;6.05;;;15.20;99.90;;;;;;5208372;28;20393;-75
2023/09/21 03:15:59;;;;;;;5.95;5.13;;;14.90;99.90;;;;;;5207683;28;20032;-77
2023/09/21 03:18:31;;;;;;;7.90;6.25;;;15.00;99.90;;;;;;5208541;28;20036;-76
2023/09/21 03:21:09;;;;;;;6.85;6.00;;;15.20;99.90;;;;;;5208308;28;20036;-76
2023/09/21 03:23:45;;;;;;;7.28;5.82;;;15.00;99.90;;;;;;5205359;28;20084;-76
2023/09/21 03:26:18;;;;;;;8.60;5.85;;;15.10;99.90;;;;;;5207781;28;20040;-75
2023/09/21 03:28:49;;;;;;;10.20;6.57;;;15.00;99.90;;;;;;5207779;28;20032;-76
2023/09/21 03:31:22;;;;;;;7.25;6.15;;;14.80;99.90;;;;;;5204138;28;20112;-75
2023/09/21 03:33:53;;;;;;;11.35;7.35;;;14.70;99.90;;;;;;5187129;28;20654;-76
2023/09/21 03:36:24;;;;;;;8.52;6.82;;;14.60;99.90;;;;;;5185276;28;20054;-76
2023/09/21 03:38:56;;;;;;;14.60;6.55;;;14.80;99.90;;;;;;5186091;28;20109;-76
2023/09/21 03:41:27;;;;;;;10.05;6.47;;;14.80;99.90;;;;;;5187205;28;20029;-76
2023/09/21 03:43:58;;;;;;;8.45;6.25;;;14.70;99.90;;;;;;5187048;28;20018;-76
2023/09/21 03:46:29;;;;;;;12.70;7.22;;;14.80;99.90;;;;;;5187067;28;20469;-77
2023/09/21 03:49:00;;;;;;;8.68;6.70;;;14.60;99.90;;;;;;5187228;28;20373;-76
2023/09/21 03:51:31;;;;;;;7.35;6.57;;;14.80;99.90;;;;;;5186779;28;20037;-76
2023/09/21 03:54:04;;;;;;;8.25;6.00;;;14.90;99.90;;;;;;5185715;28;20026;-76
2023/09/21 03:56:36;;;;;;;8.20;6.82;;;14.50;99.90;;;;;;5187072;28;20065;-75
2023/09/21 03:59:07;;;;;;;11.48;7.35;;;14.50;99.90;;;;;;5186786;28;20462;-75
2023/09/21 04:01:38;;;;;;;8.88;7.78;;;14.60;99.90;;;;;;5186688;28;20080;-76
2023/09/21 04:04:17;;;;;;;9.20;6.93;;;14.00;99.90;;;;;;5186473;28;20573;-75
2023/09/21 04:06:48;;;;;;;9.93;6.95;;;14.90;99.90;;;;;;5185384;28;20045;-75
2023/09/21 04:09:19;;;;;;;9.25;6.13;;;14.80;99.90;;;;;;5186649;28;20030;-76
2023/09/21 04:11:50;;;;;;;9.20;7.35;;;14.70;99.90;;;;;;5185259;28;20480;-75
2023/09/21 04:14:21;;;;;;;9.18;6.80;;;14.60;99.90;;;;;;5186774;28;20022;-75
2023/09/21 04:16:52;;;;;;;10.15;8.02;;;14.80;99.90;;;;;;5186509;28;20553;-75
2023/09/21 04:19:24;;;;;;;8.98;7.55;;;14.80;99.90;;;;;;5185695;28;20024;-77
2023/09/21 04:21:55;;;;;;;8.45;7.38;;;14.70;99.90;;;;;;5184797;28;20503;-75
2023/09/21 04:24:26;;;;;;;10.68;8.18;;;14.10;99.90;;;;;;5186070;28;20462;-75
2023/09/21 04:26:56;;;;;;;9.18;7.30;;;14.70;99.90;;;;;;5193604;28;20034;-76
2023/09/21 04:29:27;;;;;;;10.27;7.60;;;14.90;99.90;;;;;;5206579;28;20028;-75
2023/09/21 04:31:59;;;;;;;8.73;7.47;;;14.90;99.90;;;;;;5206558;28;20112;-75
2023/09/21 04:34:31;;;;;;;9.73;8.40;;;14.60;99.90;;;;;;5206207;28;20087;-75
2023/09/21 04:37:02;;;;;;;10.10;7.60;;;14.70;99.90;;;;;;5205989;28;20076;-76
2023/09/21 04:39:33;;;;;;;9.45;7.82;;;15.00;99.90;;;;;;5206471;28;20443;-75
2023/09/21 04:42:04;;;;;;;10.35;8.05;;;15.20;99.90;;;;;;5188675;28;20481;-76
2023/09/21 04:44:35;;;;;;;8.48;7.68;;;15.20;99.90;;;;;;5206117;28;20036;-75
2023/09/21 04:47:06;;;;;;;9.20;7.68;;;15.40;99.90;;;;;;5206504;28;20381;-75
2023/09/21 04:49:37;;;;;;;10.07;7.82;;;15.40;99.90;;;;;;5206442;28;20535;-76
2023/09/21 04:52:08;;;;;;;10.35;7.28;;;15.50;99.90;;;;;;5206302;28;20033;-76
2023/09/21 04:54:39;;;;;;;10.70;7.40;;;15.60;99.90;;;;;;5205154;28;20026;-75
2023/09/21 04:57:10;;;;;;;8.63;6.93;;;15.60;99.90;;;;;;5205933;28;20033;-76
2023/09/21 04:59:41;;;;;;;8.63;7.10;;;15.30;99.90;;;;;;5206176;28;20024;-75
2023/09/21 05:02:12;;;;;;;8.75;7.28;;;15.60;99.90;;;;;;5206077;28;20408;-75
2023/09/21 05:04:43;;;;;;;13.13;7.70;;;15.90;99.90;;;;;;5188433;28;20079;-76
2023/09/21 05:07:14;;;;;;;9.73;7.28;;;15.90;99.90;;;;;;5206248;28;20030;-75
2023/09/21 05:09:46;;;;;;;9.43;7.70;;;16.00;99.90;;;;;;5205950;28;20431;-76
2023/09/21 05:12:18;;;;;;;12.15;7.88;;;15.60;99.90;;;;;;5205715;28;20025;-76
2023/09/21 05:14:50;;;;;;;12.50;9.45;;;15.70;99.90;;;;;;5188224;28;20036;-76
2023/09/21 05:17:21;;;;;;;10.10;8.50;;;16.00;99.90;;;;;;5187613;28;20492;-76
2023/09/21 05:19:53;;;;;;;12.00;8.48;;;16.20;99.90;;;;;;5205209;28;20032;-76
2023/09/21 05:22:24;;;;;;;11.95;9.07;;;16.30;99.90;;;;;;5204589;28;20052;-75
2023/09/21 05:24:55;;;;;;;11.93;8.90;;;16.40;99.90;;;;;;5188199;28;20029;-76
2023/09/21 05:27:29;;;;;;;13.95;9.43;;;16.60;99.90;;;;;;5187955;28;20029;-76
2023/09/21 05:30:01;;;;;;;12.82;8.80;;;15.90;99.90;;;;;;5205597;28;20025;-76
2023/09/21 05:32:35;;;;;;;15.90;9.48;;;16.40;99.90;;;;;;5205572;28;20022;-75
2023/09/21 05:35:07;;;;;;;11.20;8.85;;;16.40;99.90;;;;;;5205516;28;20175;-75
2023/09/21 05:37:41;;;;;;;11.18;8.27;;;16.70;99.90;;;;;;5205162;28;20474;-75
2023/09/21 05:40:12;;;;;;;10.90;8.82;;;16.70;99.90;;;;;;5205713;28;20032;-76
2023/09/21 05:42:45;;;;;;;13.80;9.55;;;16.80;99.90;;;;;;5205452;28;20485;-75
2023/09/21 05:45:15;;;;;;;11.30;8.20;;;16.80;99.90;;;;;;5205404;28;20021;-75
2023/09/21 05:47:46;;;;;;;9.05;8.05;;;17.00;99.90;;;;;;5209223;28;20074;-76
2023/09/21 05:50:18;;;;;;;11.05;8.43;;;17.30;99.90;;;;;;5191940;28;20492;-76
2023/09/21 05:52:49;;;;;;;9.35;8.30;;;17.40;99.90;;;;;;5209766;28;20120;-76
2023/09/21 05:55:19;;;;;;;12.02;8.10;;;17.50;99.90;;;;;;5209405;28;20156;-75
2023/09/21 05:57:50;;;;;;;12.40;8.23;;;17.70;99.90;;;;;;5191348;28;20037;-76
2023/09/21 06:00:22;;;;;;;9.27;8.00;;;17.90;99.90;;;;;;5209462;28;20083;-76
2023/09/21 06:02:54;;;;;;;9.05;7.70;;;18.10;99.90;;;;;;5191689;28;20032;-76
2023/09/21 06:05:25;;;;;;;10.88;7.78;;;18.20;99.90;;;;;;5209261;28;20025;-76
2023/09/21 06:07:57;;;;;;;9.52;7.57;;;18.30;99.90;;;;;;5209411;28;20056;-76
2023/09/21 06:10:30;;;;;;;10.73;8.02;;;18.40;99.90;;;;;;5190988;28;20029;-75
2023/09/21 06:13:07;;;;;;;10.10;7.38;;;18.60;99.90;;;;;;5209151;28;20147;-76
2023/09/21 06:15:47;;;;;;;9.38;8.30;;;18.80;99.90;;;;;;5208849;28;20427;-76
2023/09/21 06:18:18;;;;;;;8.43;7.63;;;18.90;99.90;;;;;;5209071;28;20488;-76
2023/09/21 06:20:49;;;;;;;9.07;7.47;;;18.90;99.90;;;;;;5191288;28;20037;-76
2023/09/21 06:23:20;;;;;;;8.05;6.72;;;19.10;99.90;;;;;;5191115;28;20500;-76
2023/09/21 06:25:51;;;;;;;9.50;7.90;;;19.20;99.90;;;;;;5209023;28;20061;-76
2023/09/21 06:28:22;;;;;;;9.45;7.95;;;19.40;99.90;;;;;;5208859;28;20022;-76
2023/09/21 06:30:52;;;;;;;9.43;8.43;;;19.70;99.90;;;;;;5190610;28;20505;-76
2023/09/21 06:33:24;;;;;;;8.32;7.47;;;19.90;99.90;;;;;;5190504;28;20017;-76
2023/09/21 06:35:54;;;;;;;9.57;8.57;;;20.10;99.90;;;;;;5208452;28;20069;-76
2023/09/21 06:38:26;;;;;;;10.73;9.15;;;20.20;99.90;;;;;;5191052;28;20126;-76
2023/09/21 06:40:58;;;;;;;10.93;8.63;;;20.20;99.90;;;;;;5208128;28;20064;-76
2023/09/21 06:43:30;;;;;;;9.73;8.77;;;20.50;99.90;;;;;;5208686;28;20033;-76
2023/09/21 06:46:01;;;;;;;8.55;7.60;;;20.80;99.90;;;;;;5191121;28;20022;-77
2023/09/21 06:48:33;;;;;;;7.63;6.93;;;20.90;99.90;;;;;;5205757;28;20021;-78
2023/09/21 06:51:04;;;;;;;8.25;7.38;;;21.10;99.90;;;;;;5208378;28;20025;-75
2023/09/21 06:53:36;;;;;;;7.80;6.90;;;21.10;99.90;;;;;;5190692;28;20114;-78
2023/09/21 06:56:07;;;;;;;7.65;6.95;;;21.20;99.90;;;;;;5190819;28;20026;-77
2023/09/21 06:58:38;;;;;;;7.47;6.72;;;21.50;99.90;;;;;;5208572;28;20037;-80
2023/09/21 07:01:09;;;;;;;7.82;7.03;;;21.70;99.90;;;;;;5190588;28;20479;-77
2023/09/21 07:03:40;;;;;;;7.45;6.75;;;22.00;99.90;;;;;;5208294;28;20769;-78
2023/09/21 07:06:11;;;;;;;7.95;6.38;;;22.10;99.90;;;;;;5205805;28;20041;-80
2023/09/21 07:08:42;;;;;;;8.40;7.70;;;22.20;99.90;;;;;;5208264;28;20034;-82
2023/09/21 07:11:19;;;;;;;7.95;7.05;;;22.20;99.90;;;;;;5208111;28;20026;-80
2023/09/21 07:13:51;;;;;;;7.53;6.82;;;22.50;99.90;;;;;;5208675;28;20428;-77
2023/09/21 07:16:22;;;;;;;7.30;6.35;;;22.80;99.90;;;;;;5207111;28;20038;-76
2023/09/21 07:18:53;;;;;;;5.60;5.00;;;22.90;99.90;;;;;;5206885;28;20021;-77
2023/09/21 07:21:24;;;;;;;5.70;4.93;;;22.90;99.90;;;;;;5207208;28;20028;-78
2023/09/21 07:23:55;;;;;;;5.82;5.13;;;22.80;99.90;;;;;;5208632;28;20018;-76
2023/09/21 07:26:26;;;;;;;4.70;4.10;;;23.00;99.90;;;;;;5207708;28;20449;-78
2023/09/21 07:28:57;;;;;;;6.00;4.40;;;22.90;99.90;;;;;;5207851;28;20045;-78
2023/09/21 07:31:29;;;;;;;5.10;4.70;;;23.10;99.90;;;;;;5189527;28;20420;-76
2023/09/21 07:34:02;;;;;;;5.88;5.47;;;23.30;99.90;;;;;;5207985;28;20026;-79
2023/09/21 07:36:35;;;;;;;6.75;6.25;;;23.40;99.90;;;;;;5207677;28;20053;-79
2023/09/21 07:39:10;;;;;;;8.05;7.55;;;23.60;99.90;;;;;;5208325;28;20018;-80
2023/09/21 07:41:41;;;;;;;8.65;8.05;;;23.60;99.90;;;;;;5207903;28;20040;-77
2023/09/21 07:44:13;;;;;;;7.88;7.22;;;23.60;99.90;;;;;;5207525;28;20021;-77
2023/09/21 07:46:44;;;;;;;7.32;6.93;;;23.80;99.90;;;;;;5207212;28;20021;-80
2023/09/21 07:49:16;;;;;;;6.20;5.45;;;24.10;99.90;;;;;;5189298;28;20030;-76
2023/09/21 07:51:47;;;;;;;5.05;4.65;;;24.20;99.90;;;;;;5207737;28;20053;-79
2023/09/21 07:54:18;;;;;;;5.95;4.72;;;24.20;99.90;;;;;;5207682;28;20469;-79
2023/09/21 07:56:49;;;;;;;5.28;4.78;;;24.30;99.90;;;;;;5189660;28;20064;-80
2023/09/21 07:59:20;;;;;;;6.35;5.85;;;24.40;99.90;;;;;;5207705;28;20098;-79
2023/09/21 08:01:53;;;;;;;5.30;4.80;;;24.50;99.90;;;;;;5206805;28;20467;-81
2023/09/21 08:04:24;;;;;;;5.57;5.07;;;24.60;99.90;;;;;;5207488;28;20021;-80
2023/09/21 08:06:56;;;;;;;5.53;4.80;;;24.70;99.90;;;;;;5188729;28;20044;-80
2023/09/21 08:09:27;;;;;;;7.25;5.65;;;24.80;99.90;;;;;;5205185;28;20026;-79
2023/09/21 08:11:58;;;;;;;6.05;5.55;;;24.90;99.90;;;;;;5207065;28;20095;-79
2023/09/21 08:14:31;;;;;;;5.60;5.20;;;24.80;99.90;;;;;;5207149;28;20033;-79
2023/09/21 08:17:02;;;;;;;6.30;5.80;;;25.00;99.90;;;;;;5207016;28;20037;-80
2023/09/21 08:19:35;;;;;;;6.78;6.13;;;25.10;99.90;;;;;;5206956;28;20037;-77
2023/09/21 08:22:06;;;;;;;6.13;5.63;;;25.10;99.90;;;;;;5205917;28;20089;-79
2023/09/21 08:24:39;;;;;;;6.13;5.47;;;25.10;99.90;;;;;;5206971;28;20029;-78
2023/09/21 08:27:10;;;;;;;7.22;6.63;;;25.30;99.90;;;;;;5189101;28;20539;-77
2023/09/21 08:29:41;;;;;;;8.10;7.43;;;25.20;99.90;;;;;;5206592;28;20029;-80
2023/09/21 08:32:14;;;;;;;7.63;7.13;;;25.30;99.90;;;;;;5206431;28;20021;-76
2023/09/21 08:34:45;;;;;;;8.55;7.95;;;25.30;99.90;;;;;;5206755;28;20075;-77
2023/09/21 08:37:17;;;;;;;7.20;6.75;;;25.50;99.90;;;;;;5206405;28;20481;-80
2023/09/21 08:39:48;;;;;;;6.93;6.30;;;25.60;99.90;;;;;;5205924;28;20581;-77
2023/09/21 08:42:19;;;;;;;6.03;5.53;;;25.50;99.90;;;;;;5206212;28;20032;-80
2023/09/21 08:44:50;;;;;;;5.60;4.88;;;25.70;99.90;;;;;;5206581;28;20025;-80
2023/09/21 08:47:25;;;;;;;4.60;4.20;;;25.80;99.90;;;;;;5188018;28;20022;-82
2023/09/21 08:49:57;;;;;;;6.82;4.90;;;26.00;99.90;;;;;;5205617;28;20017;-77
2023/09/21 08:52:31;;;;;;;5.55;5.05;;;26.00;99.90;;;;;;5206469;28;20030;-79
2023/09/21 08:55:03;;;;;;;5.57;5.07;;;26.20;99.90;;;;;;5206272;28;20053;-78
2023/09/21 08:57:36;;;;;;;5.03;4.43;;;26.20;99.90;;;;;;5188046;28;20420;-76
2023/09/21 09:00:10;;;;;;;5.75;5.30;;;26.40;99.90;;;;;;5206012;28;20381;-79
2023/09/21 09:02:41;;;;;;;4.43;4.10;;;26.60;99.90;;;;;;5205916;28;20026;-79
2023/09/21 09:05:13;;;;;;;4.45;4.13;;;26.00;99.90;;;;;;5205922;28;20063;-77
2023/09/21 09:07:44;;;;;;;4.50;4.20;;;26.20;99.90;;;;;;5206268;28;20484;-78
2023/09/21 09:10:15;;;;;;;4.53;4.13;;;26.20;99.90;;;;;;5188415;28;20014;-77
2023/09/21 09:12:49;;;;;;;5.72;5.22;;;26.60;99.90;;;;;;5206312;28;20031;-82
2023/09/21 09:15:34;;;;;;;7.95;7.30;;;26.80;99.90;;;;;;5206033;28;20018;-81
2023/09/21 09:18:07;;;;;;;10.02;9.43;;;26.90;99.90;;;;;;5206046;28;20033;-76
2023/09/21 09:20:38;;;;;;;9.65;8.95;;;27.10;99.90;;;;;;5205189;28;20017;-80
2023/09/21 09:23:14;;;;;;;9.35;8.75;;;27.00;99.90;;;;;;5188262;28;20033;-80
2023/09/21 09:25:49;;;;;;;10.15;9.43;;;26.90;99.90;;;;;;5206291;28;20014;-82
2023/09/21 09:28:19;;;;;;;7.72;7.13;;;27.10;99.90;;;;;;5205988;28;20389;-79
2023/09/21 09:30:52;;;;;;;6.40;6.00;;;27.30;99.90;;;;;;5188018;28;20029;-81
2023/09/21 09:33:25;;;;;;;7.57;6.97;;;27.50;99.90;;;;;;5205779;28;20033;-77
2023/09/21 09:35:58;;;;;;;7.50;7.00;;;27.60;99.90;;;;;;5205385;28;20436;-78
2023/09/21 09:38:28;;;;;;;5.47;5.15;;;27.70;99.90;;;;;;5205702;28;20045;-84
2023/09/21 09:41:06;;;;;;;5.63;5.22;;;27.30;99.90;;;;;;5205315;28;20392;-77
2023/09/21 09:43:39;;;;;;;5.00;4.70;;;27.80;99.90;;;;;;5205002;28;20025;-84
2023/09/21 09:46:12;;;;;;;5.57;4.50;;;27.80;99.90;;;;;;5204427;28;20036;-76
2023/09/21 09:48:43;;;;;;;5.07;4.68;;;27.80;99.90;;;;;;5205098;28;20033;-78
2023/09/21 09:51:21;;;;;;;4.95;4.53;;;27.90;99.90;;;;;;5205070;28;20044;-81
2023/09/21 09:53:53;;;;;;;4.90;4.60;;;28.20;99.90;;;;;;5204905;28;20117;-78
2023/09/21 09:56:25;;;;;;;6.63;4.85;;;28.10;99.90;;;;;;5204976;28;20080;-81
2023/09/21 09:58:58;;;;;;;5.70;5.30;;;27.80;99.90;;;;;;5197985;28;20030;-77
2023/09/21 10:01:33;;;;;;;5.30;4.32;;;27.80;99.90;;;;;;5204444;28;20026;-80
2023/09/21 10:04:07;;;;;;;6.75;4.72;;;27.90;99.90;;;;;;5205511;28;20030;-81
2023/09/21 10:06:41;;;;;;;6.88;4.70;;;28.00;99.90;;;;;;5203931;28;20428;-77
2023/09/21 10:09:13;;;;;;;4.70;4.30;;;27.70;99.90;;;;;;5203988;28;20029;-78
2023/09/21 10:11:48;;;;;;;4.72;4.43;;;27.70;99.90;;;;;;5204889;28;20338;-81
2023/09/21 10:14:19;;;;;;;5.90;5.07;;;28.00;99.90;;;;;;5205129;28;20049;-82
2023/09/21 10:16:55;;;;;;;5.30;4.47;;;27.90;99.90;;;;;;5203685;28;20496;-80
2023/09/21 10:19:30;;;;;;;5.65;5.15;;;28.00;99.90;;;;;;5204797;28;20116;-80
2023/09/21 10:22:21;;;;;;;5.32;4.93;;;28.10;99.90;;;;;;5205180;28;20029;-80
2023/09/21 10:24:58;;;;;;;5.45;4.85;;;28.20;99.90;;;;;;5205206;28;20505;-79
2023/09/21 10:27:33;;;;;;;5.47;5.07;;;28.20;99.90;;;;;;5205425;28;20041;-80
2023/09/21 10:30:08;;;;;;;5.40;5.00;;;28.10;99.90;;;;;;5205172;28;20050;-80
2023/09/21 10:32:48;;;;;;;5.53;5.03;;;28.20;99.90;;;;;;5205420;28;20033;-77
2023/09/21 10:35:38;;;;;;;5.40;4.90;;;28.30;99.90;;;;;;5208494;28;20505;-80
2023/09/21 10:38:17;;;;;;;6.45;4.95;;;28.50;99.90;;;;;;5208223;28;20045;-82
2023/09/21 10:40:49;;;;;;;4.85;4.45;;;28.10;99.90;;;;;;5208217;28;20116;-81
2023/09/21 10:43:38;;;;;;;7.68;5.70;;;28.40;99.90;;;;;;5208458;28;20032;-76
2023/09/21 10:46:21;;;;;;;5.72;5.32;;;28.10;99.90;;;;;;5207346;28;20025;-79
2023/09/21 10:49:11;;;;;;;5.78;5.22;;;28.20;99.90;;;;;;5208726;28;20159;-77
2023/09/21 10:51:44;;;;;;;5.45;4.85;;;28.50;99.90;;;;;;5208725;28;20476;-77
2023/09/21 10:54:17;;;;;;;4.47;4.18;;;28.60;99.90;;;;;;5207476;28;20021;-78
2023/09/21 10:56:48;;;;;;;4.70;3.55;;;28.70;99.90;;;;;;5208440;28;20461;-81
2023/09/21 10:59:19;;;;;;;4.15;3.85;;;28.50;99.90;;;;;;5208493;28;20064;-78
2023/09/21 11:01:51;;;;;;;5.07;4.78;;;28.60;99.90;;;;;;5206965;28;20028;-80
2023/09/21 11:04:23;;;;;;;4.80;4.50;;;28.10;99.90;;;;;;5206817;28;20539;-81
2023/09/21 11:06:54;;;;;;;4.80;4.45;;;28.30;99.90;;;;;;5206855;28;20037;-79
2023/09/21 11:09:24;;;;;;;6.10;4.32;;;28.50;99.90;;;;;;5206948;28;20091;-81
2023/09/21 11:11:56;;;;;;;4.57;4.28;;;28.40;99.90;;;;;;5208013;28;20068;-78
2023/09/21 11:14:27;;;;;;;5.38;4.88;;;28.30;99.90;;;;;;5206570;28;20026;-77
2023/09/21 11:16:58;;;;;;;4.50;4.20;;;28.70;99.90;;;;;;5207995;28;20369;-81
2023/09/21 11:19:29;;;;;;;4.70;4.30;;;28.70;99.90;;;;;;5206575;28;20649;-81
2023/09/21 11:22:05;;;;;;;5.00;3.85;;;28.60;99.90;;;;;;5207537;28;20112;-77
2023/09/21 11:24:37;;;;;;;4.03;3.67;;;28.20;99.90;;;;;;5207815;28;20117;-77
2023/09/21 11:27:14;;;;;;;4.43;4.03;;;28.60;99.90;;;;;;5206414;28;20009;-77
2023/09/21 11:29:46;;;;;;;3.38;3.17;;;28.50;99.90;;;;;;5207547;28;20022;-83
2023/09/21 11:32:18;;;;;;;4.10;3.80;;;28.80;99.90;;;;;;5205839;28;20428;-81
2023/09/21 11:34:58;;;;;;;3.47;3.17;;;28.90;99.90;;;;;;5207374;28;20013;-80
2023/09/21 11:37:30;;;;;;;6.75;3.88;;;28.80;99.90;;;;;;5205853;28;20048;-77
2023/09/21 11:40:10;;;;;;;3.90;3.60;;;28.60;99.90;;;;;;5207818;28;20361;-82
2023/09/21 11:42:46;;;;;;;4.03;3.50;;;28.30;99.90;;;;;;5207651;28;20372;-77
2023/09/21 11:45:18;;;;;;;3.83;3.53;;;28.10;99.90;;;;;;5206759;28;20018;-80
2023/09/21 11:47:57;;;;;;;3.58;3.13;;;28.90;99.90;;;;;;5206133;28;20041;-80
2023/09/21 11:50:32;;;;;;;3.88;3.58;;;28.90;99.90;;;;;;5207331;28;20018;-79
2023/09/21 11:53:07;;;;;;;4.93;3.75;;;28.90;99.90;;;;;;5206261;28;20037;-77
2023/09/21 11:55:38;;;;;;;3.72;3.42;;;28.90;99.90;;;;;;5207378;28;20087;-79
2023/09/21 11:58:15;;;;;;;4.60;4.20;;;29.10;99.90;;;;;;5207196;28;20037;-78
2023/09/21 12:00:53;;;;;;;3.95;3.67;;;29.20;99.90;;;;;;5207370;28;20018;-77
2023/09/21 12:03:24;;;;;;;3.63;3.10;;;28.70;99.90;;;;;;5205722;28;20029;-80
2023/09/21 12:05:56;;;;;;;4.45;3.72;;;28.60;99.90;;;;;;5206787;28;20025;-78
2023/09/21 12:08:27;;;;;;;3.65;3.35;;;28.80;99.90;;;;;;5206855;28;20024;-76
2023/09/21 12:10:58;;;;;;;4.43;3.83;;;28.60;99.90;;;;;;5205596;28;20385;-76
2023/09/21 12:13:29;;;;;;;3.45;3.13;;;28.70;99.90;;;;;;5202761;28;20030;-82
2023/09/21 12:16:00;;;;;;;3.95;3.33;;;28.80;99.90;;;;;;5211049;28;20087;-82
2023/09/21 12:18:31;;;;;;;3.65;3.35;;;28.90;99.90;;;;;;5202518;28;20489;-81
2023/09/21 12:21:03;;;;;;;3.92;3.63;;;28.90;99.90;;;;;;5202587;28;20072;-77
2023/09/21 12:23:35;;;;;;;5.30;3.22;;;28.90;99.90;;;;;;5206851;28;20029;-79
2023/09/21 12:26:07;;;;;;;5.43;3.75;;;29.00;99.90;;;;;;5201206;28;20120;-79
2023/09/21 12:28:38;;;;;;;4.50;4.10;;;28.90;99.90;;;;;;5204898;28;20029;-79
2023/09/21 12:31:09;;;;;;;3.90;3.60;;;29.00;99.90;;;;;;5205009;28;20578;-78
2023/09/21 12:33:41;;;;;;;3.65;3.35;;;29.00;99.90;;;;;;5195831;28;20024;-79
2023/09/21 12:36:13;;;;;;;3.78;3.05;;;28.60;99.90;;;;;;5188541;28;20054;-81
2023/09/21 12:38:44;;;;;;;3.63;3.33;;;28.90;99.90;;;;;;5188352;28;20030;-79
2023/09/21 12:41:15;;;;;;;3.38;3.15;;;28.90;99.90;;;;;;5206406;28;20033;-80
2023/09/21 12:43:46;;;;;;;3.33;2.95;;;28.90;99.90;;;;;;5206274;28;20103;-76
2023/09/21 12:46:17;;;;;;;3.55;3.25;;;28.70;99.90;;;;;;5206276;28;20120;-81
2023/09/21 12:48:48;;;;;;;3.58;3.28;;;28.40;99.90;;;;;;5206080;28;20725;-79
2023/09/21 12:51:19;;;;;;;5.18;3.45;;;28.60;99.90;;;;;;5205733;28;20103;-80
2023/09/21 12:53:50;;;;;;;3.55;3.25;;;28.80;99.90;;;;;;5206020;28;20072;-79
2023/09/21 12:56:21;;;;;;;3.38;3.13;;;28.90;99.90;;;;;;5206058;28;20440;-77
2023/09/21 12:58:53;;;;;;;3.33;3.13;;;28.70;99.90;;;;;;5204791;28;20124;-79
2023/09/21 13:01:24;;;;;;;3.00;2.80;;;28.50;99.90;;;;;;5206180;28;20467;-77
2023/09/21 13:03:55;;;;;;;4.68;2.90;;;28.40;99.90;;;;;;5205995;28;20116;-79
2023/09/21 13:06:26;;;;;;;3.28;3.00;;;28.20;99.90;;;;;;5206266;28;20068;-80
2023/09/21 13:08:58;;;;;;;3.40;3.20;;;28.60;99.90;;;;;;5206288;28;20051;-76
2023/09/21 13:11:29;;;;;;;3.92;2.67;;;28.60;99.90;;;;;;5206574;28;20026;-81
2023/09/21 13:14:00;;;;;;;3.53;2.75;;;28.70;99.90;;;;;;5206116;28;20040;-79